createdAt,value
2022-08-25T00:01:27.517Z,57.84
2022-08-25T00:03:57.524Z,58.07
2022-08-25T00:06:24.951Z,57.00
2022-08-25T00:08:51.816Z,57.58
2022-08-25T00:11:23.923Z,57.72
2022-08-25T00:13:54.240Z,57.69
2022-08-25T00:16:22.826Z,57.69
2022-08-25T00:18:54.307Z,58.17
2022-08-25T00:21:21.689Z,59.17
2022-08-25T00:23:48.394Z,59.68
2022-08-25T00:26:16.310Z,59.73
2022-08-25T00:28:43.789Z,58.92
2022-08-25T00:31:16.445Z,59.22
2022-08-25T00:33:44.893Z,59.48
2022-08-25T00:36:12.520Z,60.19
2022-08-25T00:38:44.716Z,59.64
2022-08-25T00:41:15.014Z,59.13
2022-08-25T00:43:41.557Z,60.53
2022-08-25T00:46:10.254Z,60.41
2022-08-25T00:48:39.120Z,60.36
2022-08-25T00:51:08.424Z,60.48
2022-08-25T00:53:35.256Z,60.37
2022-08-25T00:56:02.472Z,60.70
2022-08-25T00:58:31.080Z,60.59
2022-08-25T01:00:58.805Z,60.87
2022-08-25T01:03:33.051Z,60.98
2022-08-25T01:06:04.208Z,61.29
2022-08-25T01:08:32.544Z,60.70
2022-08-25T01:11:04.908Z,61.12
2022-08-25T01:13:37.381Z,62.17
2022-08-25T01:16:04.150Z,63.24
2022-08-25T01:18:53.002Z,61.41
2022-08-25T01:21:21.900Z,62.15
2022-08-25T01:23:50.539Z,62.66
2022-08-25T01:26:30.073Z,63.49
2022-08-25T01:29:18.034Z,63.19
2022-08-25T01:31:45.252Z,62.37
2022-08-25T01:34:12.636Z,61.64
2022-08-25T01:36:41.166Z,63.11
2022-08-25T01:39:07.902Z,62.32
2022-08-25T01:41:34.445Z,62.00
2022-08-25T01:44:02.793Z,62.43
2022-08-25T01:46:29.644Z,62.44
2022-08-25T01:48:56.311Z,63.02
2022-08-25T01:51:25.522Z,63.25
2022-08-25T01:53:52.137Z,63.19
2022-08-25T01:56:19.259Z,62.99
2022-08-25T01:58:49.060Z,64.03
2022-08-25T02:01:20.287Z,64.10
2022-08-25T02:03:49.687Z,64.22
2022-08-25T02:06:21.280Z,64.38
2022-08-25T02:09:00.711Z,63.59
2022-08-25T02:11:28.422Z,63.91
2022-08-25T02:13:55.028Z,64.19
2022-08-25T02:16:28.406Z,63.92
2022-08-25T02:18:56.139Z,64.54
2022-08-25T02:21:22.843Z,63.96
2022-08-25T02:23:49.586Z,65.06
2022-08-25T02:26:18.937Z,64.40
2022-08-25T02:28:50.584Z,64.35
2022-08-25T02:31:18.686Z,64.28
2022-08-25T02:33:45.575Z,64.42
2022-08-25T02:36:12.336Z,65.19
2022-08-25T02:38:39.755Z,65.47
2022-08-25T02:41:13.268Z,64.18
2022-08-25T02:43:42.131Z,64.98
2022-08-25T02:46:10.388Z,64.57
2022-08-25T02:48:37.741Z,65.92
2022-08-25T02:51:05.855Z,65.04
2022-08-25T02:53:33.523Z,66.12
2022-08-25T02:56:00.297Z,64.73
2022-08-25T02:58:26.935Z,65.84
2022-08-25T03:00:53.740Z,65.85
2022-08-25T03:03:20.727Z,67.03
2022-08-25T03:05:47.420Z,66.13
2022-08-25T03:08:14.461Z,66.44
2022-08-25T03:10:41.410Z,66.73
2022-08-25T03:13:08.297Z,65.39
2022-08-25T03:15:37.832Z,64.98
2022-08-25T03:18:06.127Z,64.98
2022-08-25T03:20:35.744Z,66.98
2022-08-25T03:23:03.071Z,66.33
2022-08-25T03:28:38.931Z,67.08
2022-08-25T03:31:05.837Z,66.33
2022-08-25T03:33:32.467Z,66.90
2022-08-25T03:35:59.356Z,67.02
2022-08-25T03:38:26.989Z,68.02
2022-08-25T03:40:53.665Z,67.29
2022-08-25T03:43:20.385Z,67.02
2022-08-25T03:45:47.982Z,67.50
2022-08-25T03:48:16.136Z,67.52
2022-08-25T03:50:51.490Z,67.25
2022-08-25T03:53:19.965Z,68.04
2022-08-25T03:55:47.307Z,68.99
2022-08-25T03:58:14.374Z,68.25
2022-08-25T04:00:42.124Z,67.74
2022-08-25T04:03:08.998Z,69.37
2022-08-25T04:05:35.635Z,70.09
2022-08-25T04:08:02.714Z,70.33
2022-08-25T04:10:29.766Z,68.46
2022-08-25T04:12:57.531Z,70.75
2022-08-25T04:15:28.923Z,69.65
2022-08-25T04:17:59.016Z,69.53
2022-08-25T04:20:26.310Z,69.89
2022-08-25T04:22:53.269Z,69.97
2022-08-25T04:25:20.033Z,70.43
2022-08-25T04:27:46.720Z,69.84
2022-08-25T04:30:13.832Z,70.47
2022-08-25T04:32:40.600Z,70.58
2022-08-25T04:35:07.728Z,70.19
2022-08-25T04:37:34.767Z,70.00
2022-08-25T04:40:01.925Z,70.13
2022-08-25T04:42:28.653Z,70.67
2022-08-25T04:44:55.794Z,71.63
2022-08-25T04:47:22.452Z,71.56
2022-08-25T04:49:49.278Z,71.63
2022-08-25T04:52:15.947Z,72.22
2022-08-25T04:54:43.114Z,70.53
2022-08-25T04:57:09.962Z,71.53
2022-08-25T04:59:36.813Z,71.51
2022-08-25T05:02:05.248Z,71.55
2022-08-25T05:04:35.249Z,70.19
2022-08-25T05:07:03.411Z,71.43
2022-08-25T05:09:32.072Z,71.62
2022-08-25T05:11:59.995Z,70.59
2022-08-25T05:14:26.885Z,70.80
2022-08-25T05:16:54.853Z,70.14
2022-08-25T05:19:21.691Z,70.64
2022-08-25T05:21:48.400Z,71.85
2022-08-25T05:24:15.412Z,72.36
2022-08-25T05:26:44.052Z,72.02
2022-08-25T05:29:11.773Z,72.04
2022-08-25T05:31:42.427Z,71.68
2022-08-25T05:34:12.139Z,72.11
2022-08-25T05:36:43.368Z,73.39
2022-08-25T05:39:10.989Z,73.75
2022-08-25T05:41:37.942Z,72.25
2022-08-25T05:44:04.873Z,71.29
2022-08-25T05:46:31.897Z,71.45
2022-08-25T05:48:59.111Z,69.90
2022-08-25T05:51:26.786Z,71.12
2022-08-25T05:53:53.956Z,71.18
2022-08-25T05:56:21.164Z,69.71
2022-08-25T05:58:48.108Z,67.32
2022-08-25T06:01:48.276Z,69.73
2022-08-25T06:04:22.542Z,68.62
2022-08-25T06:06:49.924Z,67.38
2022-08-25T06:09:16.539Z,64.44
2022-08-25T06:11:43.256Z,66.21
2022-08-25T06:14:10.730Z,66.58
2022-08-25T06:16:39.127Z,67.16
2022-08-25T06:19:08.119Z,65.36
2022-08-25T06:21:34.748Z,64.87
2022-08-25T06:24:02.155Z,61.87
2022-08-25T06:26:28.812Z,62.38
2022-08-25T06:28:55.453Z,65.65
2022-08-25T06:31:22.684Z,62.41
2022-08-25T06:33:50.260Z,60.98
2022-08-25T06:36:16.935Z,60.70
2022-08-25T06:38:43.703Z,62.12
2022-08-25T06:41:14.017Z,62.69
2022-08-25T06:43:48.108Z,61.26
2022-08-25T06:46:26.357Z,60.43
2022-08-25T06:49:03.030Z,59.83
2022-08-25T06:51:30.031Z,61.36
2022-08-25T06:53:56.680Z,60.29
2022-08-25T06:56:24.049Z,61.30
2022-08-25T06:58:50.792Z,58.14
2022-08-25T07:01:26.215Z,58.44
2022-08-25T07:03:59.683Z,63.74
2022-08-25T07:06:27.897Z,58.44
2022-08-25T07:08:54.608Z,60.49
2022-08-25T07:11:21.547Z,55.96
2022-08-25T07:13:52.595Z,57.73
2022-08-25T07:16:20.806Z,54.45
2022-08-25T07:18:48.394Z,55.53
2022-08-25T07:21:15.303Z,53.65
2022-08-25T07:23:42.473Z,54.80
2022-08-25T07:26:39.346Z,52.72
2022-08-25T07:29:32.754Z,53.29
2022-08-25T07:32:05.244Z,53.65
2022-08-25T07:37:49.643Z,51.32
2022-08-25T07:40:23.204Z,51.71
2022-08-25T07:42:52.426Z,51.54
2022-08-25T07:45:21.478Z,51.22
2022-08-25T07:47:48.580Z,52.63
2022-08-25T07:50:18.550Z,54.60
2022-08-25T07:52:52.099Z,49.09
2022-08-25T07:55:22.808Z,51.88
2022-08-25T07:57:52.788Z,52.03
2022-08-25T08:00:22.586Z,48.37
2022-08-25T08:02:51.416Z,51.75
2022-08-25T08:05:18.101Z,48.13
2022-08-25T08:07:44.739Z,56.13
2022-08-25T08:10:48.003Z,48.68
2022-08-25T08:13:01.767Z,50.89
2022-08-25T08:15:29.957Z,47.42
2022-08-25T08:17:58.458Z,47.02
2022-08-25T08:20:27.077Z,44.93
2022-08-25T08:22:53.900Z,46.00
2022-08-25T08:25:21.521Z,44.87
2022-08-25T08:27:54.946Z,45.45
2022-08-25T08:30:22.286Z,45.00
2022-08-25T08:33:09.124Z,45.16
2022-08-25T08:35:37.157Z,43.63
2022-08-25T08:38:06.938Z,42.65
2022-08-25T08:41:14.569Z,44.05
2022-08-25T08:43:43.658Z,44.42
2022-08-25T08:46:11.246Z,43.31
2022-08-25T08:48:40.848Z,43.54
2022-08-25T08:51:09.840Z,44.88
2022-08-25T08:53:57.220Z,42.68
2022-08-25T08:56:30.947Z,37.93
2022-08-25T08:59:14.333Z,36.71
2022-08-25T09:01:59.153Z,37.93
2022-08-25T09:04:36.089Z,37.97
2022-08-25T09:07:09.189Z,39.84
2022-08-25T09:09:40.126Z,37.33
2022-08-25T09:12:31.478Z,36.45
2022-08-25T09:15:18.363Z,38.16
2022-08-25T09:18:29.791Z,36.38
2022-08-25T09:21:15.941Z,36.74
2022-08-25T09:24:05.672Z,37.33
2022-08-25T09:26:50.983Z,35.69
2022-08-25T09:29:25.385Z,34.85
2022-08-25T09:31:57.942Z,34.50
2022-08-25T09:34:31.893Z,37.46
2022-08-25T09:36:59.334Z,33.32
2022-08-25T09:39:27.906Z,35.50
2022-08-25T09:41:59.287Z,32.49
2022-08-25T09:44:50.045Z,35.93
2022-08-25T09:47:28.005Z,32.89
2022-08-25T09:50:00.716Z,33.49
2022-08-25T09:52:41.106Z,29.49
2022-08-25T09:55:08.112Z,32.59
2022-08-25T09:57:45.217Z,31.48
2022-08-25T10:00:13.612Z,33.00
2022-08-25T10:02:42.719Z,32.55
2022-08-25T10:05:26.135Z,32.42
2022-08-25T10:07:57.188Z,31.41
2022-08-25T10:10:35.604Z,31.07
2022-08-25T10:13:12.176Z,31.13
2022-08-25T10:15:39.726Z,30.72
2022-08-25T10:18:15.753Z,30.64
2022-08-25T10:20:44.848Z,32.64
2022-08-25T10:23:15.025Z,33.30
2022-08-25T10:25:59.222Z,30.71
2022-08-25T10:29:11.910Z,29.83
2022-08-25T10:32:28.031Z,27.49
2022-08-25T10:34:58.471Z,27.72
2022-08-25T10:37:34.737Z,33.34
2022-08-25T10:40:04.816Z,32.38
2022-08-25T10:42:54.690Z,28.10
2022-08-25T10:45:45.764Z,29.47
2022-08-25T10:48:27.791Z,27.17
2022-08-25T10:51:37.712Z,26.89
2022-08-25T10:54:24.591Z,28.45
2022-08-25T10:56:56.539Z,32.13
2022-08-25T10:59:59.764Z,28.14
2022-08-25T11:03:03.973Z,27.63
2022-08-25T11:05:54.710Z,29.44
2022-08-25T11:08:40.098Z,28.72
2022-08-25T11:11:24.304Z,27.09
2022-08-25T11:13:53.172Z,27.09
2022-08-25T11:16:53.682Z,26.88
2022-08-25T11:19:35.001Z,28.33
2022-08-25T11:22:15.362Z,24.72
2022-08-25T11:25:00.997Z,25.51
2022-08-25T11:28:12.183Z,26.66
2022-08-25T11:30:40.242Z,25.54
2022-08-25T11:33:11.783Z,25.90
2022-08-25T11:35:43.255Z,29.44
2022-08-25T11:38:37.853Z,30.37
2022-08-25T11:41:27.192Z,24.69
2022-08-25T11:44:20.104Z,26.09
2022-08-25T11:47:21.490Z,28.25
2022-08-25T11:50:23.671Z,27.16
2022-08-25T11:52:59.818Z,25.40
2022-08-25T11:55:52.253Z,26.21
2022-08-25T11:58:49.951Z,25.71
2022-08-25T12:01:32.585Z,26.88
2022-08-25T12:04:28.638Z,25.43
2022-08-25T12:07:06.825Z,27.07
2022-08-25T12:09:54.629Z,27.79
2022-08-25T12:12:43.964Z,27.95
2022-08-25T12:15:33.166Z,24.20
2022-08-25T12:18:23.196Z,25.63
2022-08-25T12:20:53.997Z,27.99
2022-08-25T12:24:10.077Z,25.04
2022-08-25T12:26:51.965Z,27.13
2022-08-25T12:29:39.511Z,25.48
2022-08-25T12:32:43.711Z,28.49
2022-08-25T12:35:30.588Z,26.04
2022-08-25T12:38:02.510Z,24.56
2022-08-25T12:40:58.530Z,26.63
2022-08-25T12:43:38.085Z,23.88
2022-08-25T12:46:20.130Z,24.17
2022-08-25T12:49:01.043Z,25.26
2022-08-25T12:51:48.575Z,25.47
2022-08-25T12:54:33.951Z,25.02
2022-08-25T12:57:05.167Z,23.44
2022-08-25T12:59:37.760Z,23.27
2022-08-25T13:02:36.626Z,24.93
2022-08-25T13:05:12.284Z,22.78
2022-08-25T13:08:06.945Z,25.85
2022-08-25T13:11:05.003Z,26.99
2022-08-25T13:14:04.401Z,26.99
2022-08-25T13:16:33.512Z,23.88
2022-08-25T13:19:06.832Z,22.56
2022-08-25T13:21:37.841Z,25.65
2022-08-25T13:24:17.152Z,23.81
2022-08-25T13:26:47.133Z,27.23
2022-08-25T13:29:22.325Z,23.84
2022-08-25T13:32:01.449Z,23.70
2022-08-25T13:34:36.870Z,28.29
2022-08-25T13:37:26.300Z,22.30
2022-08-25T13:40:10.952Z,23.69
2022-08-25T13:42:42.524Z,24.20
2022-08-25T13:45:15.204Z,25.12
2022-08-25T13:47:45.739Z,23.10
2022-08-25T13:50:18.415Z,23.65
2022-08-25T13:53:23.929Z,24.97
2022-08-25T13:55:57.122Z,26.85
2022-08-25T13:58:38.594Z,26.84
2022-08-25T14:01:45.057Z,24.62
2022-08-25T14:04:24.737Z,25.20
2022-08-25T14:07:13.205Z,29.27
2022-08-25T14:09:55.806Z,28.02
2022-08-25T14:12:44.843Z,24.06
2022-08-25T14:15:17.719Z,24.40
2022-08-25T14:17:48.644Z,24.37
2022-08-25T14:20:25.662Z,25.93
2022-08-25T14:22:58.012Z,26.33
2022-08-25T14:25:26.863Z,25.01
2022-08-25T14:28:16.479Z,24.52
2022-08-25T14:30:59.750Z,26.85
2022-08-25T14:33:34.325Z,26.02
2022-08-25T14:36:05.415Z,25.05
2022-08-25T14:38:33.521Z,24.90
2022-08-25T14:41:00.642Z,24.43
2022-08-25T14:43:31.541Z,24.61
2022-08-25T14:46:00.506Z,24.05
2022-08-25T14:48:35.504Z,24.45
2022-08-25T14:51:04.273Z,25.51
2022-08-25T14:53:30.928Z,26.98
2022-08-25T14:55:58.979Z,25.91
2022-08-25T14:58:26.755Z,25.65
2022-08-25T15:00:54.579Z,26.55
2022-08-25T15:03:31.751Z,27.09
2022-08-25T15:06:00.602Z,27.25
2022-08-25T15:08:47.237Z,26.50
2022-08-25T15:11:14.932Z,26.77
2022-08-25T15:13:44.669Z,26.31
2022-08-25T15:16:35.380Z,24.84
2022-08-25T15:19:06.767Z,25.69
2022-08-25T15:21:34.142Z,26.42
2022-08-25T15:24:02.686Z,25.75
2022-08-25T15:26:29.247Z,26.27
2022-08-25T15:28:58.161Z,25.98
2022-08-25T15:31:24.857Z,25.97
2022-08-25T15:33:53.571Z,26.74
2022-08-25T15:36:25.565Z,26.40
2022-08-25T15:38:53.236Z,27.38
2022-08-25T15:41:21.745Z,26.63
2022-08-25T15:43:53.913Z,26.46
2022-08-25T15:46:21.884Z,27.33
2022-08-25T15:48:48.589Z,28.04
2022-08-25T15:51:17.699Z,27.15
2022-08-25T15:53:45.024Z,28.12
2022-08-25T15:56:26.516Z,27.92
2022-08-25T15:58:54.349Z,28.53
2022-08-25T16:01:24.944Z,27.93
2022-08-25T16:03:51.868Z,27.98
2022-08-25T16:06:18.586Z,28.79
2022-08-25T16:08:45.256Z,27.93
2022-08-25T16:11:20.999Z,27.90
2022-08-25T16:13:49.337Z,28.21
2022-08-25T16:16:17.927Z,28.59
2022-08-25T16:18:45.569Z,28.75
2022-08-25T16:21:16.636Z,27.85
2022-08-25T16:23:44.076Z,28.36
2022-08-25T16:26:13.023Z,28.42
2022-08-25T16:28:43.655Z,28.64
2022-08-25T16:31:12.344Z,28.82
2022-08-25T16:36:15.592Z,30.44
2022-08-25T16:38:43.363Z,30.27
2022-08-25T16:41:22.985Z,30.38
2022-08-25T16:43:50.409Z,30.49
2022-08-25T16:46:19.132Z,30.65
2022-08-25T16:48:46.522Z,30.67
2022-08-25T16:51:22.786Z,29.80
2022-08-25T16:54:15.866Z,30.23
2022-08-25T16:56:49.240Z,30.59
2022-08-25T16:59:22.151Z,30.50
2022-08-25T17:01:51.145Z,30.88
2022-08-25T17:04:17.813Z,31.46
2022-08-25T17:06:51.784Z,31.73
2022-08-25T17:09:23.046Z,31.68
2022-08-25T17:11:52.702Z,32.09
2022-08-25T17:14:21.388Z,31.86
2022-08-25T17:16:48.609Z,31.97
2022-08-25T17:19:17.699Z,31.50
2022-08-25T17:21:46.411Z,31.79
2022-08-25T17:24:14.068Z,32.00
2022-08-25T17:26:46.232Z,32.67
2022-08-25T17:29:13.068Z,32.12
2022-08-25T17:31:40.155Z,32.72
2022-08-25T17:34:12.892Z,34.16
2022-08-25T17:36:43.988Z,33.73
2022-08-25T17:39:12.333Z,34.26
2022-08-25T17:41:39.716Z,34.66
2022-08-25T17:44:07.610Z,34.06
2022-08-25T17:46:35.009Z,34.73
2022-08-25T17:49:01.710Z,34.90
2022-08-25T17:51:29.725Z,35.05
2022-08-25T17:53:58.605Z,35.47
2022-08-25T17:56:27.234Z,35.12
2022-08-25T17:58:55.910Z,35.20
2022-08-25T18:01:24.687Z,35.84
2022-08-25T18:03:52.540Z,35.75
2022-08-25T18:06:22.553Z,37.12
2022-08-25T18:08:52.258Z,36.92
2022-08-25T18:11:24.513Z,36.96
2022-08-25T18:13:53.716Z,37.05
2022-08-25T18:16:21.287Z,37.34
2022-08-25T18:18:48.599Z,37.20
2022-08-25T18:21:17.261Z,37.79
2022-08-25T18:23:45.196Z,38.05
2022-08-25T18:26:14.499Z,38.65
2022-08-25T18:28:43.902Z,38.36
2022-08-25T18:31:13.252Z,39.30
2022-08-25T18:33:45.033Z,39.18
2022-08-25T18:36:12.448Z,39.66
2022-08-25T18:38:59.361Z,40.38
2022-08-25T18:41:27.796Z,40.48
2022-08-25T18:43:54.506Z,40.66
2022-08-25T18:46:22.765Z,41.21
2022-08-25T18:48:52.958Z,41.47
2022-08-25T18:51:23.143Z,41.92
2022-08-25T18:53:51.191Z,42.07
2022-08-25T18:56:19.203Z,42.48
2022-08-25T18:58:46.980Z,42.85
2022-08-25T19:01:18.552Z,43.41
2022-08-25T19:03:45.708Z,43.38
2022-08-25T19:06:12.574Z,43.94
2022-08-25T19:08:42.089Z,43.55
2022-08-25T19:11:10.002Z,44.35
2022-08-25T19:13:37.861Z,43.97
2022-08-25T19:16:41.029Z,44.64
2022-08-25T19:19:11.553Z,44.90
2022-08-25T19:21:38.796Z,45.13
2022-08-25T19:24:07.956Z,44.57
2022-08-25T19:26:36.545Z,44.96
2022-08-25T19:29:08.949Z,45.67
2022-08-25T19:31:39.203Z,45.72
2022-08-25T19:34:08.734Z,46.37
2022-08-25T19:36:35.566Z,45.55
2022-08-25T19:39:04.980Z,46.29
2022-08-25T19:41:32.097Z,45.93
2022-08-25T19:44:01.619Z,45.67
2022-08-25T19:46:35.679Z,48.81
2022-08-25T19:49:26.358Z,47.37
2022-08-25T19:51:55.385Z,48.02
2022-08-25T19:54:32.370Z,48.80
2022-08-25T19:56:59.723Z,48.91
2022-08-25T19:59:34.301Z,47.99
2022-08-25T20:02:15.535Z,48.99
2022-08-25T20:04:49.769Z,47.51
2022-08-25T20:07:18.945Z,47.71
2022-08-25T20:09:45.578Z,48.20
2022-08-25T20:14:46.766Z,47.96
2022-08-25T20:17:23.140Z,48.11
2022-08-25T20:19:53.028Z,48.31
2022-08-25T20:22:23.627Z,48.93
2022-08-25T20:24:56.252Z,48.75
2022-08-25T20:27:28.308Z,49.63
2022-08-25T20:29:55.858Z,49.69
2022-08-25T20:32:23.416Z,48.81
2022-08-25T20:34:50.435Z,49.23
2022-08-25T20:37:18.596Z,50.36
2022-08-25T20:39:46.219Z,50.39
2022-08-25T20:42:13.685Z,50.88
2022-08-25T20:44:42.194Z,50.53
2022-08-25T20:47:10.527Z,51.22
2022-08-25T20:49:40.029Z,52.39
2022-08-25T20:52:07.594Z,53.32
2022-08-25T20:54:34.663Z,53.33
2022-08-25T20:57:02.642Z,53.17
2022-08-25T20:59:29.699Z,53.04
2022-08-25T21:01:56.617Z,52.78
2022-08-25T21:04:25.921Z,53.50
2022-08-25T21:06:52.954Z,53.78
2022-08-25T21:09:23.729Z,54.12
2022-08-25T21:11:51.301Z,52.72
2022-08-25T21:16:46.591Z,54.43
2022-08-25T21:19:16.074Z,54.32
2022-08-25T21:21:43.834Z,54.64
2022-08-25T21:24:11.700Z,54.84
2022-08-25T21:26:48.562Z,55.18
2022-08-25T21:29:17.384Z,54.78
2022-08-25T21:31:44.312Z,54.81
2022-08-25T21:34:12.679Z,55.42
2022-08-25T21:36:40.547Z,55.79
2022-08-25T21:39:07.943Z,55.80
2022-08-25T21:41:37.677Z,54.84
2022-08-25T21:44:04.583Z,56.50
2022-08-25T21:46:33.531Z,56.60
2022-08-25T21:49:01.581Z,56.07
2022-08-25T21:51:43.664Z,55.77
2022-08-25T21:54:14.214Z,56.89
2022-08-25T21:56:43.692Z,57.07
2022-08-25T21:59:14.061Z,57.06
2022-08-25T22:01:41.475Z,58.05
2022-08-25T22:04:10.096Z,56.38
2022-08-25T22:06:36.878Z,57.29
2022-08-25T22:09:07.395Z,58.36
2022-08-25T22:11:35.960Z,59.09
2022-08-25T22:14:03.600Z,58.51
2022-08-25T22:16:33.044Z,57.81
2022-08-25T22:19:00.708Z,59.48
2022-08-25T22:21:28.001Z,59.71
2022-08-25T22:23:56.079Z,58.30
2022-08-25T22:26:23.881Z,59.36
2022-08-25T22:28:54.124Z,59.56
2022-08-25T22:31:21.198Z,60.14
2022-08-25T22:33:48.910Z,59.80
2022-08-25T22:36:24.807Z,59.57
2022-08-25T22:38:54.815Z,60.09
2022-08-25T22:41:22.924Z,59.75
2022-08-25T22:43:52.900Z,59.06
2022-08-25T22:46:21.584Z,60.17
2022-08-25T22:48:50.301Z,61.23
2022-08-25T22:51:24.357Z,61.05
2022-08-25T22:53:51.655Z,60.09
2022-08-25T22:56:29.708Z,61.63
2022-08-25T22:59:05.567Z,61.44
2022-08-25T23:01:33.038Z,61.32
2022-08-25T23:04:01.212Z,62.50
2022-08-25T23:06:29.405Z,61.79
2022-08-25T23:08:57.092Z,63.15
2022-08-25T23:11:28.917Z,62.69
2022-08-25T23:13:57.651Z,62.48
2022-08-25T23:16:25.154Z,62.39
2022-08-25T23:18:52.840Z,62.35
2022-08-25T23:21:40.975Z,62.73
2022-08-25T23:24:11.838Z,63.26
2022-08-25T23:26:42.646Z,63.51
2022-08-25T23:29:18.742Z,62.34
2022-08-25T23:31:47.826Z,63.49
2022-08-25T23:34:16.003Z,63.15
2022-08-25T23:36:43.448Z,62.97
2022-08-25T23:39:11.465Z,63.45
2022-08-25T23:41:38.719Z,62.60
2022-08-25T23:44:06.702Z,62.47
2022-08-25T23:46:36.177Z,63.09
2022-08-25T23:49:05.599Z,63.97
2022-08-25T23:51:38.125Z,64.15
2022-08-25T23:54:09.213Z,64.16
2022-08-25T23:56:42.479Z,64.77
2022-08-25T23:59:13.007Z,65.67
